Terminal Aerodrome Forecast
Issued by NWS

Current Version | Previous Version | Graphics & Text | Print | Product List | Glossary On
Versions: 1 2 3 4 5 6 7 8 9 10 11 12 13 14 15 16 17 18 19 20 21 22 23 24 25 26 27 28
000
FTUS41 KILN 262300
TAFLUK
TAF
KLUK 262338Z 2700/2724 21005KT P6SM OVC040
     FM270400 21005KT 3SM -SHRA VCTS BKN040CB OVC150
      TEMPO 2704/2707 1SM -TSRA OVC020CB
     FM270900 20008KT P6SM VCSH SCT080 OVC100
     FM271700 24011G19KT P6SM -SHRA VCTS BKN035CB
     FM272200 27014G22KT P6SM BKN040=

USA.gov is the U.S. government's official web portal to all federal, state and local government web resources and services.